Time;durP1;ratioP1;P1;durP2;ratioP2;P2;SDS_P1;SDS_P2;PMS_P1;PMS_P2;Temp;Humidity;BMP_temperature;BMP_pressure;BME280_temperature;BME280_humidity;BME280_pressure;Samples;Min_cycle;Max_cycle;Signal;HPM_P1;HPM_P2
2022/02/10 00:05:53;;;;;;;4.03;3.30;;;;;;;;;;5039757;28;20189;-74
2022/02/10 00:17:01;;;;;;;3.67;3.25;;;;;;;;;;5038879;28;20215;-75
2022/02/10 00:19:42;;;;;;;4.38;3.35;;;;;;;;;;5041063;28;20294;-75
2022/02/10 00:22:15;;;;;;;4.28;2.75;;;;;;;;;;5037806;28;20215;-75
2022/02/10 00:25:37;;;;;;;3.55;3.25;;;;;;;;;;5031942;28;20266;-75
2022/02/10 00:36:36;;;;;;;14.20;3.58;;;;;;;;;;4999271;28;20199;-74
2022/02/10 00:39:17;;;;;;;3.92;3.30;;;;;;;;;;5018747;28;20667;-73
2022/02/10 00:41:44;;;;;;;4.13;3.72;;;;;;;;;;5032895;28;20238;-74
2022/02/10 00:44:11;;;;;;;3.63;3.10;;;;;;;;;;5033534;28;20250;-73
2022/02/10 00:46:40;;;;;;;5.15;3.70;;;;;;;;;;5049973;28;20210;-73
2022/02/10 00:49:08;;;;;;;5.30;3.58;;;;;;;;;;5048770;28;20195;-73
2022/02/10 00:51:35;;;;;;;6.70;3.60;;;;;;;;;;5044333;28;20219;-74
2022/02/10 00:54:02;;;;;;;4.85;3.85;;;;;;;;;;5034414;28;20731;-74
2022/02/10 00:56:29;;;;;;;6.50;4.13;;;;;;;;;;5045302;28;20199;-73
2022/02/10 00:59:08;;;;;;;4.10;3.70;;;;;;;;;;5038485;28;20710;-73
2022/02/10 01:07:13;;;;;;;4.22;3.75;;;;;;;;;;5034991;28;20206;-73
2022/02/10 01:12:41;;;;;;;3.72;3.38;;;;;;;;;;5036529;28;20202;-73
2022/02/10 01:31:47;;;;;;;5.47;3.63;;;;;;;;;;5035056;28;20202;-73
2022/02/10 01:34:14;;;;;;;6.10;3.38;;;;;;;;;;5038419;28;20203;-74
2022/02/10 01:36:42;;;;;;;3.17;2.88;;;;;;;;;;5039115;28;20199;-73
2022/02/10 01:39:10;;;;;;;3.78;3.35;;;;;;;;;;5040557;28;20209;-73
2022/02/10 01:42:06;;;;;;;4.05;3.05;;;;;;;;;;5046038;28;20221;-73
2022/02/10 02:03:45;;;;;;;3.85;3.10;;;;;;;;;;5046528;28;20703;-74
2022/02/10 02:06:20;;;;;;;4.00;3.50;;;;;;;;;;5040446;28;20199;-73
2022/02/10 02:08:49;;;;;;;3.47;3.13;;;;;;;;;;5035352;28;20217;-73
2022/02/10 02:11:16;;;;;;;5.18;4.30;;;;;;;;;;5044796;28;20194;-74
2022/02/10 02:13:43;;;;;;;4.25;3.22;;;;;;;;;;5040331;28;20203;-73
2022/02/10 02:16:10;;;;;;;5.28;3.25;;;;;;;;;;5042104;28;20616;-73
2022/02/10 02:18:37;;;;;;;4.30;3.20;;;;;;;;;;5045890;28;20670;-73
2022/02/10 02:21:04;;;;;;;3.78;3.47;;;;;;;;;;5045228;28;20218;-73
2022/02/10 02:23:32;;;;;;;4.13;3.72;;;;;;;;;;5042698;28;20199;-74
2022/02/10 02:26:06;;;;;;;3.35;3.05;;;;;;;;;;5035270;28;20219;-73
2022/02/10 02:28:35;;;;;;;5.80;3.60;;;;;;;;;;5039362;28;20313;-74
2022/02/10 02:31:06;;;;;;;4.80;4.28;;;;;;;;;;5035445;28;20583;-73
2022/02/10 02:34:04;;;;;;;5.78;3.90;;;;;;;;;;5039545;28;20191;-74
2022/02/10 02:37:13;;;;;;;4.85;3.83;;;;;;;;;;5033102;28;20227;-73
2022/02/10 03:07:35;;;;;;;4.90;4.30;;;;;;;;;;5046468;28;20291;-73
2022/02/10 03:10:25;;;;;;;4.15;3.85;;;;;;;;;;5044572;28;20320;-73
2022/02/10 03:12:53;;;;;;;4.40;3.80;;;;;;;;;;5048746;28;20884;-73
2022/02/10 03:15:27;;;;;;;7.45;4.68;;;;;;;;;;5044275;28;20589;-73
2022/02/10 03:18:11;;;;;;;4.95;4.32;;;;;;;;;;5047986;28;20210;-73
2022/02/10 03:20:51;;;;;;;4.88;4.30;;;;;;;;;;5052304;28;20669;-73
2022/02/10 04:02:24;;;;;;;5.85;5.28;;;;;;;;;;5045341;28;20245;-73
2022/02/10 04:05:06;;;;;;;5.88;3.85;;;;;;;;;;5052031;28;20213;-73
2022/02/10 04:07:53;;;;;;;5.25;4.40;;;;;;;;;;5042184;28;20294;-73
2022/02/10 04:10:50;;;;;;;6.43;3.88;;;;;;;;;;5044286;28;20226;-73
2022/02/10 04:13:25;;;;;;;6.10;4.72;;;;;;;;;;5046312;28;20206;-73
2022/02/10 04:16:03;;;;;;;8.05;5.65;;;;;;;;;;5042060;28;20198;-73
2022/02/10 04:21:35;;;;;;;5.75;4.20;;;;;;;;;;5046170;28;20745;-74
2022/02/10 04:24:14;;;;;;;4.40;3.83;;;;;;;;;;5042862;28;20195;-73
2022/02/10 04:26:51;;;;;;;9.13;5.10;;;;;;;;;;5046118;28;20332;-73
2022/02/10 04:32:35;;;;;;;7.13;4.22;;;;;;;;;;5033136;28;20498;-73
2022/02/10 04:38:34;;;;;;;6.80;4.00;;;;;;;;;;4999569;28;20601;-72
2022/02/10 04:44:13;;;;;;;6.75;4.30;;;;;;;;;;5008446;28;20199;-73
2022/02/10 04:58:01;;;;;;;4.25;3.85;;;;;;;;;;5047191;28;20202;-73
2022/02/10 05:00:43;;;;;;;4.55;4.15;;;;;;;;;;5045480;28;20594;-73
2022/02/10 05:03:47;;;;;;;4.65;4.15;;;;;;;;;;5043019;28;20704;-73
2022/02/10 05:17:36;;;;;;;6.75;4.22;;;;;;;;;;5047427;28;20351;-73
2022/02/10 05:20:22;;;;;;;5.93;3.95;;;;;;;;;;5046804;28;20272;-73
2022/02/10 05:23:04;;;;;;;4.60;4.20;;;;;;;;;;5036915;28;20215;-73
2022/02/10 05:33:51;;;;;;;6.97;4.13;;;;;;;;;;5044631;28;20198;-73
2022/02/10 05:36:21;;;;;;;7.85;4.47;;;;;;;;;;5035800;28;20198;-73
2022/02/10 05:38:53;;;;;;;6.25;3.85;;;;;;;;;;5038572;28;20233;-73
2022/02/10 05:41:55;;;;;;;4.18;3.78;;;;;;;;;;5044666;28;20218;-73
2022/02/10 05:47:40;;;;;;;3.65;3.35;;;;;;;;;;5030264;28;20256;-73
2022/02/10 05:53:20;;;;;;;9.20;4.53;;;;;;;;;;5044986;28;20187;-72
2022/02/10 05:55:56;;;;;;;8.40;5.47;;;;;;;;;;5045409;28;20199;-72
2022/02/10 05:58:31;;;;;;;5.53;4.22;;;;;;;;;;5045667;28;20333;-72
2022/02/10 06:53:22;;;;;;;9.15;6.07;;;;;;;;;;5045123;28;20194;-72
2022/02/10 06:56:26;;;;;;;8.93;4.75;;;;;;;;;;5049355;28;20198;-73
2022/02/10 07:04:42;;;;;;;6.65;5.05;;;;;;;;;;5051023;28;20198;-78
2022/02/10 07:49:03;;;;;;;9.93;5.57;;;;;;;;;;5042904;28;20209;-75
2022/02/10 07:51:58;;;;;;;7.55;5.70;;;;;;;;;;5049449;28;20187;-74
2022/02/10 07:54:33;;;;;;;8.05;4.95;;;;;;;;;;5048353;28;20870;-75
2022/02/10 07:57:09;;;;;;;6.22;4.75;;;;;;;;;;5038344;28;20198;-75
2022/02/10 08:57:47;;;;;;;10.55;5.90;;;;;;;;;;5036001;28;20216;-74
2022/02/10 09:00:56;;;;;;;8.07;5.93;;;;;;;;;;5040932;28;20217;-74
2022/02/10 09:03:36;;;;;;;5.53;5.03;;;;;;;;;;5045858;28;20217;-74
2022/02/10 09:06:11;;;;;;;7.20;5.80;;;;;;;;;;5043058;28;20286;-74
2022/02/10 09:09:10;;;;;;;6.88;5.18;;;;;;;;;;5038966;28;20195;-74
2022/02/10 09:18:12;;;;;;;7.53;6.15;;;;;;;;;;5041193;28;20187;-74
2022/02/10 09:49:02;;;;;;;11.40;6.88;;;;;;;;;;5036920;28;20221;-74
2022/02/10 09:56:53;;;;;;;7.93;6.75;;;;;;;;;;5040499;28;20211;-74
2022/02/10 10:02:08;;;;;;;8.75;6.20;;;;;;;;;;5036414;28;20226;-74
2022/02/10 10:04:40;;;;;;;11.57;7.00;;;;;;;;;;5047642;28;20198;-74
2022/02/10 10:07:24;;;;;;;8.55;6.95;;;;;;;;;;5041028;28;20691;-75
2022/02/10 10:10:23;;;;;;;9.40;7.30;;;;;;;;;;5042717;28;20281;-74
2022/02/10 10:13:24;;;;;;;8.82;6.55;;;;;;;;;;5041952;28;20195;-74
2022/02/10 10:16:02;;;;;;;9.68;6.05;;;;;;;;;;5039274;28;20199;-74
2022/02/10 10:18:48;;;;;;;7.22;5.30;;;;;;;;;;5043604;28;20198;-73
2022/02/10 10:21:29;;;;;;;9.05;7.50;;;;;;;;;;5034698;28;20291;-75
2022/02/10 10:24:14;;;;;;;7.45;5.80;;;;;;;;;;5036819;28;20195;-74
2022/02/10 10:52:04;;;;;;;10.05;8.85;;;;;;;;;;5052437;28;20237;-75
2022/02/10 10:54:38;;;;;;;15.82;9.73;;;;;;;;;;5043132;28;20202;-75
2022/02/10 10:57:14;;;;;;;10.30;8.52;;;;;;;;;;5041024;28;20669;-75
2022/02/10 11:00:07;;;;;;;13.38;8.85;;;;;;;;;;5041934;28;20213;-75
2022/02/10 11:36:35;;;;;;;10.82;6.57;;;;;;;;;;5036766;28;20218;-75
2022/02/10 11:39:22;;;;;;;9.80;6.20;;;;;;;;;;5044822;28;20749;-74
2022/02/10 11:42:13;;;;;;;6.20;5.60;;;;;;;;;;5035815;28;20593;-75
2022/02/10 11:45:49;;;;;;;7.15;5.63;;;;;;;;;;5046788;28;20666;-75
2022/02/10 11:48:29;;;;;;;7.82;5.32;;;;;;;;;;5035812;28;20280;-75
2022/02/10 12:36:34;;;;;;;4.70;4.30;;;;;;;;;;5044083;28;20217;-75
2022/02/10 12:39:25;;;;;;;4.50;3.65;;;;;;;;;;5045481;28;21588;-74
2022/02/10 13:30:53;;;;;;;5.45;3.03;;;;;;;;;;5041884;28;20191;-75
2022/02/10 13:36:21;;;;;;;3.70;3.05;;;;;;;;;;5031128;28;20206;-75
2022/02/10 14:09:18;;;;;;;3.85;3.55;;;;;;;;;;5044629;28;20283;-74
2022/02/10 14:14:49;;;;;;;3.63;3.22;;;;;;;;;;5041252;28;20222;-75
2022/02/10 14:17:27;;;;;;;4.03;3.10;;;;;;;;;;5044363;28;20214;-75
2022/02/10 14:19:59;;;;;;;3.92;3.17;;;;;;;;;;5052041;28;20293;-75
2022/02/10 14:22:40;;;;;;;4.35;3.97;;;;;;;;;;5044560;28;20250;-75
2022/02/10 14:27:54;;;;;;;4.38;4.00;;;;;;;;;;5031192;28;20206;-75
2022/02/10 14:30:21;;;;;;;4.22;3.83;;;;;;;;;;5030316;28;20226;-75
2022/02/10 14:32:49;;;;;;;5.22;3.80;;;;;;;;;;5042973;28;20203;-75
2022/02/10 14:35:22;;;;;;;3.65;3.10;;;;;;;;;;5039083;28;20205;-75
2022/02/10 14:38:14;;;;;;;4.78;4.22;;;;;;;;;;5039204;28;20233;-75
2022/02/10 14:41:10;;;;;;;4.80;4.30;;;;;;;;;;5040051;28;20207;-75
2022/02/10 15:11:45;;;;;;;4.70;3.65;;;;;;;;;;5045688;28;20194;-75
2022/02/10 15:17:13;;;;;;;5.72;3.80;;;;;;;;;;5042570;28;20253;-75
2022/02/10 15:50:32;;;;;;;2.10;1.90;;;;;;;;;;5045113;28;20303;-74
2022/02/10 15:53:41;;;;;;;2.00;1.90;;;;;;;;;;5032171;28;20200;-74
2022/02/10 16:18:13;;;;;;;3.35;2.47;;;;;;;;;;5017684;28;20454;-75
2022/02/10 16:20:48;;;;;;;3.05;2.75;;;;;;;;;;5042558;28;20203;-75
2022/02/10 16:23:18;;;;;;;3.78;2.65;;;;;;;;;;5032414;28;20214;-75
2022/02/10 16:25:49;;;;;;;4.38;3.08;;;;;;;;;;5048845;28;20427;-75
2022/02/10 16:28:25;;;;;;;6.03;2.85;;;;;;;;;;5047246;28;20225;-75
2022/02/10 16:30:53;;;;;;;4.40;2.83;;;;;;;;;;5031096;28;20670;-75
2022/02/10 16:33:20;;;;;;;3.25;2.50;;;;;;;;;;5043633;28;20203;-75
2022/02/10 16:35:48;;;;;;;3.15;2.35;;;;;;;;;;5044795;28;20202;-75
2022/02/10 16:38:15;;;;;;;3.25;2.70;;;;;;;;;;5041605;28;20203;-75
2022/02/10 16:40:44;;;;;;;2.50;2.30;;;;;;;;;;5045430;28;20209;-75
2022/02/10 16:43:13;;;;;;;5.30;3.13;;;;;;;;;;5047823;28;20656;-75
2022/02/10 16:45:42;;;;;;;4.60;2.75;;;;;;;;;;5043980;28;20218;-74
2022/02/10 16:48:09;;;;;;;2.53;2.33;;;;;;;;;;5035407;28;20195;-75
2022/02/10 16:50:37;;;;;;;4.60;2.70;;;;;;;;;;5039622;28;20942;-75
2022/02/10 16:53:10;;;;;;;3.30;2.40;;;;;;;;;;5045545;28;20289;-74
2022/02/10 16:55:44;;;;;;;8.50;2.22;;;;;;;;;;5044112;28;20701;-74
2022/02/10 16:58:21;;;;;;;6.45;3.22;;;;;;;;;;5040266;28;20211;-74
2022/02/10 17:03:51;;;;;;;5.13;2.47;;;;;;;;;;5017865;28;20235;-75
2022/02/10 17:15:15;;;;;;;4.00;3.60;;;;;;;;;;5040777;28;20225;-75
2022/02/10 17:17:58;;;;;;;5.30;3.35;;;;;;;;;;5039446;28;20233;-75
2022/02/10 17:20:39;;;;;;;4.88;3.67;;;;;;;;;;5042912;28;20678;-74
2022/02/10 17:26:02;;;;;;;3.75;3.40;;;;;;;;;;5045133;28;20578;-74
2022/02/10 17:28:29;;;;;;;3.40;3.10;;;;;;;;;;5027766;28;20257;-75
2022/02/10 17:31:24;;;;;;;3.63;3.20;;;;;;;;;;5040905;28;20670;-75
2022/02/10 17:34:12;;;;;;;8.68;3.63;;;;;;;;;;5047081;28;20633;-75
2022/02/10 17:36:47;;;;;;;4.22;3.30;;;;;;;;;;5039970;28;20210;-74
2022/02/10 17:42:18;;;;;;;3.47;3.15;;;;;;;;;;5040357;28;20194;-75
2022/02/10 17:45:06;;;;;;;3.97;2.88;;;;;;;;;;5032975;28;20606;-74
2022/02/10 17:53:05;;;;;;;3.20;2.90;;;;;;;;;;5043061;28;20316;-75
2022/02/10 17:55:32;;;;;;;4.95;3.85;;;;;;;;;;5038103;28;20199;-75
2022/02/10 17:58:01;;;;;;;4.80;3.80;;;;;;;;;;5035284;28;20681;-75
2022/02/10 18:00:28;;;;;;;7.55;3.20;;;;;;;;;;5033729;28;20211;-75
2022/02/10 18:02:59;;;;;;;5.03;2.70;;;;;;;;;;5039250;28;20199;-75
2022/02/10 18:06:01;;;;;;;5.95;3.00;;;;;;;;;;5041536;28;20202;-74
2022/02/10 18:08:27;;;;;;;4.63;2.78;;;;;;;;;;5041228;28;20285;-75
2022/02/10 18:11:30;;;;;;;4.45;3.45;;;;;;;;;;5044408;28;20202;-75
2022/02/10 18:13:59;;;;;;;3.63;3.00;;;;;;;;;;5039381;28;20194;-74
2022/02/10 18:16:30;;;;;;;4.70;2.63;;;;;;;;;;5046894;28;20282;-74
2022/02/10 18:19:04;;;;;;;3.55;3.10;;;;;;;;;;5034324;28;20205;-75
2022/02/10 18:24:41;;;;;;;4.90;3.20;;;;;;;;;;5049064;28;20211;-74
2022/02/10 18:27:18;;;;;;;4.70;4.05;;;;;;;;;;5036459;28;20294;-74
2022/02/10 18:30:12;;;;;;;4.80;3.58;;;;;;;;;;5051778;28;20201;-74
2022/02/10 19:08:45;;;;;;;6.78;3.72;;;;;;;;;;5050287;28;20190;-75
2022/02/10 19:11:15;;;;;;;7.90;3.90;;;;;;;;;;5052052;28;20195;-75
2022/02/10 19:13:43;;;;;;;3.08;2.75;;;;;;;;;;5050563;28;20202;-75
2022/02/10 19:16:10;;;;;;;4.07;3.00;;;;;;;;;;5045386;28;20195;-74
2022/02/10 19:18:38;;;;;;;3.20;2.72;;;;;;;;;;5047864;28;20290;-74
2022/02/10 19:21:05;;;;;;;6.28;3.10;;;;;;;;;;5044406;28;20199;-75
2022/02/10 19:23:32;;;;;;;2.85;2.53;;;;;;;;;;5052870;28;20210;-75
2022/02/10 19:26:00;;;;;;;2.22;2.03;;;;;;;;;;5051899;28;20688;-75
2022/02/10 19:28:27;;;;;;;3.25;2.20;;;;;;;;;;5043844;28;20195;-75
2022/02/10 19:30:54;;;;;;;3.38;2.35;;;;;;;;;;5044249;28;20202;-76
2022/02/10 19:33:21;;;;;;;3.40;2.17;;;;;;;;;;5048358;28;20199;-75
2022/02/10 19:35:52;;;;;;;3.88;2.17;;;;;;;;;;5040867;28;20214;-76
2022/02/10 19:38:22;;;;;;;2.65;2.40;;;;;;;;;;5044081;28;20203;-76
2022/02/10 19:40:52;;;;;;;3.97;2.22;;;;;;;;;;5050213;28;20627;-76
2022/02/10 19:43:21;;;;;;;3.53;2.00;;;;;;;;;;5047662;28;20206;-76
2022/02/10 19:45:48;;;;;;;5.07;2.47;;;;;;;;;;5038327;28;20222;-76
2022/02/10 19:48:15;;;;;;;6.22;2.03;;;;;;;;;;5051555;28;20203;-75
2022/02/10 19:50:43;;;;;;;2.13;1.85;;;;;;;;;;5049188;28;20203;-76
2022/02/10 19:53:13;;;;;;;4.05;1.75;;;;;;;;;;5045405;28;20195;-76
2022/02/10 19:55:44;;;;;;;2.45;1.80;;;;;;;;;;5048792;28;20226;-75
2022/02/10 19:58:14;;;;;;;2.65;1.50;;;;;;;;;;5050403;28;20646;-75
2022/02/10 20:00:44;;;;;;;3.53;2.20;;;;;;;;;;5050364;28;20214;-75
2022/02/10 20:03:13;;;;;;;2.35;1.70;;;;;;;;;;5049638;28;20249;-75
2022/02/10 20:05:44;;;;;;;1.75;1.60;;;;;;;;;;5048589;28;20385;-75
2022/02/10 20:08:13;;;;;;;1.90;1.20;;;;;;;;;;5043080;28;20205;-75
2022/02/10 20:10:40;;;;;;;3.28;1.70;;;;;;;;;;5043499;28;20195;-74
2022/02/10 20:13:07;;;;;;;2.95;1.48;;;;;;;;;;5051522;28;20206;-76
2022/02/10 20:15:34;;;;;;;2.60;1.73;;;;;;;;;;5045849;28;20195;-76
2022/02/10 20:18:04;;;;;;;2.65;2.05;;;;;;;;;;5051507;28;20199;-76
2022/02/10 20:20:32;;;;;;;2.38;2.17;;;;;;;;;;5048148;28;20200;-76
2022/02/10 20:22:59;;;;;;;2.88;2.45;;;;;;;;;;5044622;28;20199;-76
2022/02/10 20:25:27;;;;;;;2.65;1.75;;;;;;;;;;5049656;28;20686;-76
2022/02/10 20:27:54;;;;;;;1.75;1.50;;;;;;;;;;5052224;28;20567;-76
2022/02/10 20:30:21;;;;;;;3.95;2.33;;;;;;;;;;5041044;28;20217;-76
2022/02/10 20:32:48;;;;;;;2.00;1.80;;;;;;;;;;5051855;28;20222;-75
2022/02/10 20:35:17;;;;;;;2.83;1.85;;;;;;;;;;5048045;28;20199;-75
2022/02/10 20:37:44;;;;;;;2.65;1.95;;;;;;;;;;5045110;28;20209;-76
2022/02/10 20:40:11;;;;;;;3.97;1.90;;;;;;;;;;5039813;28;20222;-75
2022/02/10 20:42:40;;;;;;;3.00;1.80;;;;;;;;;;5032510;28;20282;-75
2022/02/10 20:45:08;;;;;;;1.77;1.60;;;;;;;;;;5044175;28;20257;-75
2022/02/10 20:47:35;;;;;;;2.90;1.88;;;;;;;;;;5041246;28;20723;-75
2022/02/10 20:50:03;;;;;;;1.67;1.52;;;;;;;;;;5040368;28;20206;-75
2022/02/10 20:52:31;;;;;;;2.25;1.83;;;;;;;;;;5045767;28;20230;-75
2022/02/10 20:54:59;;;;;;;1.52;1.20;;;;;;;;;;5049232;28;20205;-75
2022/02/10 20:57:26;;;;;;;2.25;1.67;;;;;;;;;;5049880;28;20658;-75
2022/02/10 20:59:55;;;;;;;1.90;1.60;;;;;;;;;;5040504;28;20215;-75
2022/02/10 21:02:30;;;;;;;2.30;2.05;;;;;;;;;;5040585;28;20269;-76
2022/02/10 21:05:02;;;;;;;3.03;1.80;;;;;;;;;;5047606;28;20685;-76
2022/02/10 21:07:35;;;;;;;2.10;1.40;;;;;;;;;;5038776;28;20207;-76
2022/02/10 21:10:05;;;;;;;3.60;1.70;;;;;;;;;;5046076;28;20207;-76
2022/02/10 21:12:37;;;;;;;2.10;1.70;;;;;;;;;;5048658;28;20629;-76
2022/02/10 21:15:09;;;;;;;4.10;1.60;;;;;;;;;;5052366;28;20608;-76
2022/02/10 21:17:36;;;;;;;2.95;1.95;;;;;;;;;;5049869;28;20210;-76
2022/02/10 21:20:06;;;;;;;1.60;1.50;;;;;;;;;;5039531;28;20205;-76
2022/02/10 21:22:37;;;;;;;3.95;1.65;;;;;;;;;;5041440;28;20647;-76
2022/02/10 21:25:11;;;;;;;1.63;1.30;;;;;;;;;;5046519;28;20210;-76
2022/02/10 21:27:43;;;;;;;4.70;2.05;;;;;;;;;;5043743;28;20246;-76
2022/02/10 21:30:12;;;;;;;2.10;1.50;;;;;;;;;;5050461;28;20201;-76
2022/02/10 21:32:46;;;;;;;2.63;1.75;;;;;;;;;;5040782;28;20199;-76
2022/02/10 21:35:25;;;;;;;2.70;1.73;;;;;;;;;;5050057;28;20286;-76
2022/02/10 21:37:56;;;;;;;2.33;2.08;;;;;;;;;;5046286;28;20194;-76
2022/02/10 21:54:43;;;;;;;2.58;2.15;;;;;;;;;;5050216;28;20260;-76
2022/02/10 21:57:35;;;;;;;4.30;2.40;;;;;;;;;;5048318;28;20186;-77
2022/02/10 22:00:31;;;;;;;2.20;2.00;;;;;;;;;;5047747;28;20205;-76
2022/02/10 22:06:22;;;;;;;2.67;2.20;;;;;;;;;;4985515;28;20328;-77
2022/02/10 22:11:45;;;;;;;2.55;1.60;;;;;;;;;;5027326;28;20252;-76
2022/02/10 22:17:16;;;;;;;2.70;2.10;;;;;;;;;;5043389;28;20593;-76
2022/02/10 22:19:46;;;;;;;3.65;2.47;;;;;;;;;;5046972;28;20198;-76
2022/02/10 22:22:21;;;;;;;4.07;2.50;;;;;;;;;;5045041;28;20199;-76
2022/02/10 22:24:48;;;;;;;3.67;3.38;;;;;;;;;;5046555;28;20281;-76
2022/02/10 22:27:18;;;;;;;2.53;2.28;;;;;;;;;;5050218;28;20199;-76
2022/02/10 22:29:51;;;;;;;2.50;2.30;;;;;;;;;;5050587;28;20244;-76
2022/02/10 22:32:26;;;;;;;2.55;2.20;;;;;;;;;;5050608;28;20206;-76
2022/02/10 22:34:54;;;;;;;4.78;2.20;;;;;;;;;;5049719;28;20187;-76
2022/02/10 22:37:21;;;;;;;4.85;2.20;;;;;;;;;;5041866;28;20746;-76
2022/02/10 22:39:51;;;;;;;4.82;1.95;;;;;;;;;;5045383;28;20191;-76
2022/02/10 22:42:22;;;;;;;2.25;2.05;;;;;;;;;;5049462;28;20258;-76
2022/02/10 22:44:49;;;;;;;2.85;2.20;;;;;;;;;;5046790;28;20761;-76
2022/02/10 22:47:16;;;;;;;1.95;1.85;;;;;;;;;;5047489;28;20199;-76
2022/02/10 22:49:43;;;;;;;3.55;2.30;;;;;;;;;;5036359;28;20191;-75
2022/02/10 22:52:13;;;;;;;4.80;2.75;;;;;;;;;;5038585;28;20655;-75
2022/02/10 22:54:40;;;;;;;2.40;2.20;;;;;;;;;;5042844;28;20198;-75
2022/02/10 22:57:07;;;;;;;2.45;2.20;;;;;;;;;;5048481;28;20195;-75
2022/02/10 22:59:35;;;;;;;2.03;1.83;;;;;;;;;;5048385;28;20194;-75
2022/02/10 23:02:02;;;;;;;2.60;1.95;;;;;;;;;;5046363;28;20198;-75
2022/02/10 23:04:29;;;;;;;4.15;3.10;;;;;;;;;;5050374;28;20701;-75
2022/02/10 23:06:58;;;;;;;4.63;2.85;;;;;;;;;;5043796;28;20483;-75
2022/02/10 23:09:27;;;;;;;3.63;2.47;;;;;;;;;;5048317;28;20654;-75
2022/02/10 23:11:55;;;;;;;6.05;2.25;;;;;;;;;;5051534;28;20187;-75
2022/02/10 23:14:22;;;;;;;4.65;3.08;;;;;;;;;;5047662;28;20196;-76
2022/02/10 23:16:49;;;;;;;3.92;3.13;;;;;;;;;;5048022;28;20210;-75
2022/02/10 23:19:16;;;;;;;3.35;2.15;;;;;;;;;;5051203;28;20226;-76
2022/02/10 23:21:44;;;;;;;3.47;2.22;;;;;;;;;;5047693;28;20692;-76
2022/02/10 23:24:11;;;;;;;5.10;2.72;;;;;;;;;;5042998;28;20195;-76
2022/02/10 23:26:39;;;;;;;3.45;2.75;;;;;;;;;;5046902;28;20206;-75
2022/02/10 23:29:06;;;;;;;3.97;2.38;;;;;;;;;;5045563;28;20207;-75
2022/02/10 23:31:33;;;;;;;9.27;2.90;;;;;;;;;;5044433;28;20198;-75
2022/02/10 23:34:03;;;;;;;2.40;2.20;;;;;;;;;;5051664;28;20372;-75
2022/02/10 23:39:19;;;;;;;2.88;2.15;;;;;;;;;;5046775;28;20623;-75
2022/02/10 23:42:08;;;;;;;3.33;2.65;;;;;;;;;;5045906;28;20290;-74
2022/02/10 23:44:38;;;;;;;4.63;2.92;;;;;;;;;;5042214;28;20223;-74
2022/02/10 23:47:06;;;;;;;4.05;2.78;;;;;;;;;;5047550;28;20194;-74
2022/02/10 23:49:36;;;;;;;3.78;2.72;;;;;;;;;;5048553;28;20195;-75
2022/02/10 23:52:05;;;;;;;3.40;2.60;;;;;;;;;;5045937;28;20199;-74
2022/02/10 23:54:34;;;;;;;3.08;2.28;;;;;;;;;;5051098;28;20286;-75
2022/02/10 23:57:08;;;;;;;4.35;2.60;;;;;;;;;;5044564;28;20205;-75
